createdAt,value
2018-08-27T00:02:07.937Z,100427.94
2018-08-27T00:04:37.658Z,100430.87
2018-08-27T00:07:07.588Z,100435.67
2018-08-27T00:09:37.312Z,100441.95
2018-08-27T00:12:07.130Z,100451.31
2018-08-27T00:14:36.820Z,100447.91
2018-08-27T00:17:06.559Z,100447.56
2018-08-27T00:19:36.242Z,100442.89
2018-08-27T00:22:06.059Z,100448.18
2018-08-27T00:24:35.811Z,100455.22
2018-08-27T00:27:05.560Z,100457.82
2018-08-27T00:29:35.256Z,100446.49
2018-08-27T00:32:05.152Z,100446.50
2018-08-27T00:34:34.988Z,100446.80
2018-08-27T00:37:04.794Z,100446.27
2018-08-27T00:39:34.531Z,100445.44
2018-08-27T00:42:04.244Z,100436.77
2018-08-27T00:44:33.962Z,100444.07
2018-08-27T00:47:03.888Z,100442.75
2018-08-27T00:49:33.702Z,100442.35
2018-08-27T00:52:03.441Z,100430.62
2018-08-27T00:54:33.181Z,100435.89
2018-08-27T00:57:02.893Z,100439.41
2018-08-27T00:59:32.609Z,100431.08
2018-08-27T01:02:02.330Z,100437.69
2018-08-27T01:04:32.082Z,100431.19
2018-08-27T01:07:01.850Z,100432.09
2018-08-27T01:09:31.558Z,100432.16
2018-08-27T01:12:01.230Z,100420.45
2018-08-27T01:14:30.980Z,100416.97
2018-08-27T01:17:00.705Z,100412.56
2018-08-27T01:19:30.510Z,100402.98
2018-08-27T01:22:00.225Z,100405.55
2018-08-27T01:24:30.017Z,100403.28
2018-08-27T01:26:59.806Z,100402.86
2018-08-27T01:29:29.536Z,100394.08
2018-08-27T01:32:04.469Z,100384.45
2018-08-27T01:34:34.249Z,100378.14
2018-08-27T01:37:03.989Z,100383.27
2018-08-27T01:39:33.748Z,100378.63
2018-08-27T01:42:03.619Z,100378.67
2018-08-27T01:44:33.337Z,100374.78
2018-08-27T01:47:03.202Z,100374.72
2018-08-27T01:49:32.948Z,100370.14
2018-08-27T01:52:02.593Z,100368.00
2018-08-27T01:54:32.353Z,100361.08
2018-08-27T01:57:02.161Z,100361.06
2018-08-27T01:59:31.845Z,100355.55
2018-08-27T02:02:01.971Z,100355.67
2018-08-27T02:04:31.653Z,100350.09
2018-08-27T02:07:01.463Z,100335.33
2018-08-27T02:09:31.268Z,100339.73
2018-08-27T02:12:00.968Z,100330.98
2018-08-27T02:14:30.798Z,100333.25
2018-08-27T02:17:00.511Z,100322.40
2018-08-27T02:19:30.264Z,100322.36
2018-08-27T02:21:59.956Z,100324.95
2018-08-27T02:24:29.787Z,100320.56
2018-08-27T02:26:59.548Z,100321.81
2018-08-27T02:29:29.340Z,100325.77
2018-08-27T02:31:59.146Z,100316.25
2018-08-27T02:34:28.878Z,100314.52
2018-08-27T02:36:58.570Z,100310.92
2018-08-27T02:39:28.318Z,100333.98
2018-08-27T02:41:58.022Z,100338.67
2018-08-27T02:44:27.761Z,100340.53
2018-08-27T02:46:57.542Z,100336.15
2018-08-27T02:49:27.276Z,100341.44
2018-08-27T02:51:56.985Z,100331.85
2018-08-27T02:54:26.714Z,100333.62
2018-08-27T02:56:59.433Z,100334.04
2018-08-27T02:59:29.134Z,100336.17
2018-08-27T03:01:58.800Z,100334.88
2018-08-27T03:04:28.585Z,100331.34
2018-08-27T03:06:58.365Z,100326.27
2018-08-27T03:09:28.070Z,100321.90
2018-08-27T03:11:57.865Z,100315.82
2018-08-27T03:14:27.561Z,100316.75
2018-08-27T03:16:57.211Z,100310.64
2018-08-27T03:19:26.918Z,100311.47
2018-08-27T03:21:56.580Z,100314.06
2018-08-27T03:24:26.339Z,100311.03
2018-08-27T03:26:55.989Z,100314.51
2018-08-27T03:29:25.745Z,100305.84
2018-08-27T03:31:55.441Z,100311.91
2018-08-27T03:34:25.141Z,100315.37
2018-08-27T03:36:55.026Z,100304.46
2018-08-27T03:39:24.724Z,100309.29
2018-08-27T03:41:54.460Z,100310.55
2018-08-27T03:44:24.295Z,100315.35
2018-08-27T03:46:53.982Z,100301.41
2018-08-27T03:49:23.727Z,100304.49
2018-08-27T03:51:53.439Z,100300.97
2018-08-27T03:54:23.327Z,100298.75
2018-08-27T03:56:53.029Z,100300.55
2018-08-27T03:59:22.694Z,100298.84
2018-08-27T04:01:52.466Z,100296.67
2018-08-27T04:04:22.139Z,100301.45
2018-08-27T04:06:51.900Z,100298.42
2018-08-27T04:09:22.718Z,100301.00
2018-08-27T04:11:52.517Z,100294.96
2018-08-27T04:14:22.201Z,100300.17
2018-08-27T04:16:53.057Z,100295.78
2018-08-27T04:19:22.718Z,100294.06
2018-08-27T04:21:52.380Z,100286.14
2018-08-27T04:24:22.055Z,100290.52
2018-08-27T04:26:51.775Z,100290.98
2018-08-27T04:29:21.501Z,100281.78
2018-08-27T04:31:51.238Z,100287.45
2018-08-27T04:34:20.964Z,100284.01
2018-08-27T04:36:50.659Z,100284.46
2018-08-27T04:39:20.355Z,100285.69
2018-08-27T04:41:50.036Z,100287.44
2018-08-27T04:44:19.758Z,100287.03
2018-08-27T04:46:49.586Z,100281.80
2018-08-27T04:49:19.826Z,100286.48
2018-08-27T04:51:49.547Z,100293.44
2018-08-27T04:54:19.321Z,100289.54
2018-08-27T04:56:49.108Z,100285.16
2018-08-27T04:59:21.525Z,100292.96
2018-08-27T05:01:51.265Z,100302.44
2018-08-27T05:04:21.059Z,100294.55
2018-08-27T05:06:50.778Z,100295.91
2018-08-27T05:09:20.529Z,100298.02
2018-08-27T05:11:50.427Z,100303.69
2018-08-27T05:14:20.101Z,100304.98
2018-08-27T05:16:49.883Z,100308.75
2018-08-27T05:19:19.751Z,100306.19
2018-08-27T05:21:49.408Z,100309.67
2018-08-27T05:24:19.315Z,100311.80
2018-08-27T05:26:55.818Z,100314.87
2018-08-27T05:29:25.713Z,100316.61
2018-08-27T05:31:55.425Z,100317.02
2018-08-27T05:34:25.262Z,100323.94
2018-08-27T05:36:55.057Z,100319.99
2018-08-27T05:39:24.817Z,100326.09
2018-08-27T05:41:54.616Z,100323.42
2018-08-27T05:44:24.330Z,100325.09
2018-08-27T05:46:54.127Z,100330.19
2018-08-27T05:49:23.917Z,100327.92
2018-08-27T05:51:53.956Z,100327.48
2018-08-27T05:54:23.787Z,100330.06
2018-08-27T05:56:53.461Z,100336.02
2018-08-27T05:59:24.462Z,100339.53
2018-08-27T06:01:55.237Z,100339.50
2018-08-27T06:04:25.780Z,100340.78
2018-08-27T06:06:55.623Z,100346.38
2018-08-27T06:09:25.325Z,100346.77
2018-08-27T06:11:55.059Z,100347.51
2018-08-27T06:14:24.825Z,100347.45
2018-08-27T06:16:54.551Z,100354.25
2018-08-27T06:19:24.329Z,100352.33
2018-08-27T06:21:54.251Z,100354.44
2018-08-27T06:24:24.028Z,100352.87
2018-08-27T06:26:53.738Z,100356.58
2018-08-27T06:29:23.540Z,100357.07
2018-08-27T06:31:53.253Z,100361.94
2018-08-27T06:34:22.935Z,100366.54
2018-08-27T06:36:52.665Z,100362.23
2018-08-27T06:39:22.434Z,100372.23
2018-08-27T06:41:52.201Z,100368.02
2018-08-27T06:44:22.022Z,100375.56
2018-08-27T06:46:51.891Z,100374.78
2018-08-27T06:49:21.687Z,100374.20
2018-08-27T06:51:51.420Z,100377.20
2018-08-27T06:54:21.192Z,100375.22
2018-08-27T06:56:50.964Z,100369.94
2018-08-27T06:59:20.624Z,100374.41
2018-08-27T07:01:50.363Z,100371.49
2018-08-27T07:04:20.129Z,100375.87
2018-08-27T07:06:49.886Z,100375.42
2018-08-27T07:09:19.665Z,100373.80
2018-08-27T07:11:49.487Z,100370.50
2018-08-27T07:14:19.253Z,100366.36
2018-08-27T07:16:49.195Z,100372.67
2018-08-27T07:19:19.186Z,100372.17
2018-08-27T07:21:49.465Z,100372.89
2018-08-27T07:24:19.240Z,100370.31
2018-08-27T07:26:48.961Z,100372.71
2018-08-27T07:29:18.903Z,100373.78
2018-08-27T07:31:48.664Z,100365.74
2018-08-27T07:34:18.310Z,100372.19
2018-08-27T07:36:48.082Z,100375.45
2018-08-27T07:39:18.068Z,100377.59
2018-08-27T07:41:47.910Z,100384.93
2018-08-27T07:44:17.774Z,100390.88
2018-08-27T07:46:47.492Z,100387.56
2018-08-27T07:49:19.573Z,100393.95
2018-08-27T07:51:49.408Z,100397.97
2018-08-27T07:54:19.109Z,100389.50
2018-08-27T07:56:48.836Z,100395.67
2018-08-27T07:59:18.604Z,100402.83
2018-08-27T08:01:48.298Z,100406.36
2018-08-27T08:04:18.003Z,100402.48
2018-08-27T08:06:47.692Z,100402.64
2018-08-27T08:09:17.414Z,100404.52
2018-08-27T08:11:47.087Z,100405.10
2018-08-27T08:14:16.837Z,100407.48
2018-08-27T08:16:46.604Z,100410.36
2018-08-27T08:19:16.503Z,100407.39
2018-08-27T08:21:46.255Z,100412.31
2018-08-27T08:24:16.107Z,100422.06
2018-08-27T08:26:45.852Z,100416.83
2018-08-27T08:29:16.734Z,100417.58
2018-08-27T08:31:46.544Z,100416.62
2018-08-27T08:34:16.445Z,100414.48
2018-08-27T08:36:46.230Z,100416.45
2018-08-27T08:39:16.069Z,100421.83
2018-08-27T08:41:45.873Z,100421.95
2018-08-27T08:44:15.629Z,100418.91
2018-08-27T08:46:45.368Z,100424.03
2018-08-27T08:49:15.059Z,100433.33
2018-08-27T08:51:44.963Z,100437.37
2018-08-27T08:54:14.872Z,100435.98
2018-08-27T08:56:44.621Z,100436.58
2018-08-27T08:59:14.327Z,100436.45
2018-08-27T09:01:44.688Z,100435.83
2018-08-27T09:04:14.338Z,100443.84
2018-08-27T09:06:44.157Z,100437.58
2018-08-27T09:09:13.910Z,100437.80
2018-08-27T09:11:43.725Z,100436.43
2018-08-27T09:14:13.670Z,100447.30
2018-08-27T09:16:43.587Z,100442.95
2018-08-27T09:19:14.175Z,100451.56
2018-08-27T09:21:44.201Z,100454.41
2018-08-27T09:24:14.974Z,100451.14
2018-08-27T09:26:44.943Z,100456.42
2018-08-27T09:29:15.457Z,100452.78
2018-08-27T09:31:45.214Z,100457.36
2018-08-27T09:34:18.302Z,100459.95
2018-08-27T09:36:49.533Z,100462.50
2018-08-27T09:39:19.222Z,100461.72
2018-08-27T09:41:49.190Z,100463.09
2018-08-27T09:44:18.956Z,100458.04
2018-08-27T09:46:48.804Z,100452.61
2018-08-27T09:49:18.507Z,100453.66
2018-08-27T09:51:48.214Z,100460.15
2018-08-27T09:54:18.045Z,100448.64
2018-08-27T09:56:47.889Z,100456.67
2018-08-27T09:59:18.695Z,100456.14
2018-08-27T10:01:53.633Z,100466.52
2018-08-27T10:04:23.460Z,100463.44
2018-08-27T10:06:53.136Z,100462.14
2018-08-27T10:09:23.078Z,100454.39
2018-08-27T10:11:53.010Z,100463.23
2018-08-27T10:14:22.961Z,100465.69
2018-08-27T10:16:52.981Z,100457.95
2018-08-27T10:19:22.697Z,100463.25
2018-08-27T10:21:52.691Z,100466.09
2018-08-27T10:24:22.857Z,100465.13
2018-08-27T10:26:53.727Z,100468.91
2018-08-27T10:29:23.503Z,100471.11
2018-08-27T10:31:55.439Z,100484.73
2018-08-27T10:34:25.293Z,100474.63
2018-08-27T10:36:55.030Z,100474.81
2018-08-27T10:39:24.824Z,100476.41
2018-08-27T10:41:54.506Z,100483.31
2018-08-27T10:44:24.387Z,100476.94
2018-08-27T10:46:54.149Z,100476.77
2018-08-27T10:49:24.902Z,100482.81
2018-08-27T10:51:54.711Z,100482.58
2018-08-27T10:54:24.683Z,100478.52
2018-08-27T10:56:54.749Z,100474.03
2018-08-27T10:59:25.921Z,100489.82
2018-08-27T11:01:55.756Z,100476.50
2018-08-27T11:04:25.531Z,100472.54
2018-08-27T11:06:55.316Z,100491.67
2018-08-27T11:09:25.077Z,100482.74
2018-08-27T11:11:54.918Z,100489.10
2018-08-27T11:14:24.669Z,100492.45
2018-08-27T11:16:54.376Z,100493.13
2018-08-27T11:19:24.169Z,100494.43
2018-08-27T11:21:54.012Z,100485.23
2018-08-27T11:24:23.784Z,100494.98
2018-08-27T11:26:53.605Z,100498.27
2018-08-27T11:29:23.334Z,100501.25
2018-08-27T11:31:53.169Z,100507.01
2018-08-27T11:34:24.089Z,100510.84
2018-08-27T11:36:53.811Z,100511.22
2018-08-27T11:39:23.673Z,100510.83
2018-08-27T11:41:53.349Z,100505.30
2018-08-27T11:44:23.151Z,100517.53
2018-08-27T11:46:52.854Z,100515.53
2018-08-27T11:49:22.587Z,100528.81
2018-08-27T11:51:52.500Z,100531.67
2018-08-27T11:54:22.427Z,100525.77
2018-08-27T11:56:52.122Z,100525.95
2018-08-27T11:59:21.808Z,100527.25
2018-08-27T12:01:51.726Z,100527.16
2018-08-27T12:04:21.750Z,100522.95
2018-08-27T12:06:51.466Z,100521.02
2018-08-27T12:09:21.334Z,100523.97
2018-08-27T12:11:51.018Z,100518.70
2018-08-27T12:14:21.309Z,100523.27
2018-08-27T12:16:51.259Z,100514.57
2018-08-27T12:19:21.037Z,100527.12
2018-08-27T12:21:50.787Z,100535.41
2018-08-27T12:24:20.552Z,100543.88
2018-08-27T12:26:50.649Z,100539.61
2018-08-27T12:29:20.502Z,100538.28
2018-08-27T12:31:50.303Z,100537.82
2018-08-27T12:34:20.201Z,100551.22
2018-08-27T12:36:49.973Z,100541.77
2018-08-27T12:39:20.051Z,100544.83
2018-08-27T12:41:50.067Z,100553.22
2018-08-27T12:44:19.835Z,100557.55
2018-08-27T12:46:49.609Z,100552.81
2018-08-27T12:49:19.388Z,100550.13
2018-08-27T12:51:49.203Z,100554.95
2018-08-27T12:54:19.307Z,100558.78
2018-08-27T12:56:48.993Z,100556.28
2018-08-27T12:59:19.575Z,100560.32
2018-08-27T13:01:49.366Z,100569.52
2018-08-27T13:04:19.253Z,100577.64
2018-08-27T13:06:49.215Z,100570.75
2018-08-27T13:09:19.786Z,100573.16
2018-08-27T13:11:49.729Z,100583.28
2018-08-27T13:14:19.788Z,100580.84
2018-08-27T13:16:49.548Z,100588.58
2018-08-27T13:19:19.312Z,100582.33
2018-08-27T13:21:49.067Z,100595.40
2018-08-27T13:24:18.777Z,100600.13
2018-08-27T13:26:48.575Z,100596.80
2018-08-27T13:29:18.334Z,100608.48
2018-08-27T13:31:49.359Z,100596.57
2018-08-27T13:34:20.083Z,100610.14
2018-08-27T13:36:49.883Z,100618.99
2018-08-27T13:39:19.711Z,100613.72
2018-08-27T13:41:49.436Z,100618.89
2018-08-27T13:44:19.408Z,100615.19
2018-08-27T13:46:49.379Z,100619.69
2018-08-27T13:49:19.146Z,100626.52
2018-08-27T13:51:50.038Z,100629.86
2018-08-27T13:54:19.750Z,100629.88
2018-08-27T13:56:49.414Z,100635.67
2018-08-27T13:59:19.111Z,100634.63
2018-08-27T14:01:48.933Z,100638.13
2018-08-27T14:04:18.657Z,100649.50
2018-08-27T14:06:48.486Z,100650.97
2018-08-27T14:09:18.226Z,100645.06
2018-08-27T14:11:47.895Z,100650.31
2018-08-27T14:14:17.601Z,100653.22
2018-08-27T14:16:47.305Z,100651.97
2018-08-27T14:19:17.417Z,100656.02
2018-08-27T14:21:47.137Z,100654.45
2018-08-27T14:24:16.879Z,100655.50
2018-08-27T14:26:46.572Z,100661.51
2018-08-27T14:29:16.368Z,100661.00
2018-08-27T14:31:46.158Z,100662.29
2018-08-27T14:34:16.094Z,100670.14
2018-08-27T14:36:46.094Z,100671.72
2018-08-27T14:39:16.186Z,100683.12
2018-08-27T14:41:47.035Z,100672.38
2018-08-27T14:44:17.312Z,100681.28
2018-08-27T14:46:47.058Z,100676.62
2018-08-27T14:49:16.806Z,100675.16
2018-08-27T14:51:46.633Z,100679.66
2018-08-27T14:54:16.357Z,100682.48
2018-08-27T14:56:46.119Z,100687.89
2018-08-27T14:59:15.981Z,100685.95
2018-08-27T15:01:48.213Z,100690.38
2018-08-27T15:04:19.518Z,100689.46
2018-08-27T15:06:49.516Z,100686.89
2018-08-27T15:09:19.574Z,100684.84
2018-08-27T15:11:49.377Z,100694.63
2018-08-27T15:14:19.326Z,100698.94
2018-08-27T15:16:49.252Z,100693.80
2018-08-27T15:19:18.972Z,100698.22
2018-08-27T15:21:48.790Z,100698.40
2018-08-27T15:24:18.531Z,100704.30
2018-08-27T15:26:48.321Z,100708.95
2018-08-27T15:29:19.275Z,100713.33
2018-08-27T15:31:48.982Z,100717.78
2018-08-27T15:34:18.826Z,100723.87
2018-08-27T15:36:48.556Z,100726.25
2018-08-27T15:39:18.255Z,100726.95
2018-08-27T15:41:48.144Z,100733.58
2018-08-27T15:44:17.974Z,100740.64
2018-08-27T15:46:48.206Z,100744.98
2018-08-27T15:49:18.028Z,100742.75
2018-08-27T15:51:48.914Z,100745.91
2018-08-27T15:54:18.690Z,100742.89
2018-08-27T15:56:48.481Z,100750.86
2018-08-27T15:59:18.207Z,100760.27
2018-08-27T16:01:47.922Z,100757.94
2018-08-27T16:04:17.698Z,100763.89
2018-08-27T16:06:47.846Z,100769.33
2018-08-27T16:09:17.660Z,100768.24
2018-08-27T16:11:48.448Z,100774.81
2018-08-27T16:14:18.307Z,100774.45
2018-08-27T16:16:48.203Z,100770.45
2018-08-27T16:19:18.021Z,100780.55
2018-08-27T16:21:47.801Z,100776.28
2018-08-27T16:24:17.675Z,100780.58
2018-08-27T16:26:47.507Z,100781.48
2018-08-27T16:29:17.456Z,100784.12
2018-08-27T16:31:47.296Z,100785.05
2018-08-27T16:34:17.167Z,100798.30
2018-08-27T16:36:47.023Z,100787.70
2018-08-27T16:39:17.014Z,100791.26
2018-08-27T16:41:48.291Z,100790.09
2018-08-27T16:44:18.131Z,100790.55
2018-08-27T16:46:47.926Z,100796.55
2018-08-27T16:49:17.658Z,100792.91
2018-08-27T16:51:47.559Z,100801.45
2018-08-27T16:54:17.265Z,100804.80
2018-08-27T16:56:47.521Z,100804.41
2018-08-27T16:59:17.478Z,100812.16
2018-08-27T17:01:47.312Z,100812.47
2018-08-27T17:04:17.237Z,100811.05
2018-08-27T17:06:46.943Z,100813.84
2018-08-27T17:09:16.676Z,100817.05
2018-08-27T17:11:46.618Z,100815.09
2018-08-27T17:14:16.339Z,100819.05
2018-08-27T17:16:46.178Z,100820.68
2018-08-27T17:19:15.972Z,100829.85
2018-08-27T17:21:45.988Z,100836.11
2018-08-27T17:24:16.199Z,100838.00
2018-08-27T17:26:45.951Z,100832.59
2018-08-27T17:29:15.771Z,100846.89
2018-08-27T17:31:45.509Z,100853.19
2018-08-27T17:34:15.372Z,100850.95
2018-08-27T17:36:46.159Z,100853.37
2018-08-27T17:39:16.119Z,100851.77
2018-08-27T17:41:45.844Z,100865.34
2018-08-27T17:44:15.689Z,100868.77
2018-08-27T17:46:45.871Z,100874.13
2018-08-27T17:49:15.701Z,100866.98
2018-08-27T17:51:45.462Z,100878.22
2018-08-27T17:54:16.616Z,100885.30
2018-08-27T17:56:46.576Z,100889.81
2018-08-27T17:59:16.642Z,100889.47
2018-08-27T18:01:46.484Z,100898.48
2018-08-27T18:04:17.334Z,100904.16
2018-08-27T18:06:47.385Z,100901.96
2018-08-27T18:09:17.834Z,100912.38
2018-08-27T18:11:49.948Z,100926.34
2018-08-27T18:14:19.749Z,100924.89
2018-08-27T18:16:50.121Z,100925.09
2018-08-27T18:19:20.104Z,100932.75
2018-08-27T18:21:50.277Z,100931.98
2018-08-27T18:24:20.033Z,100938.16
2018-08-27T18:26:49.984Z,100942.76
2018-08-27T18:29:19.822Z,100950.38
2018-08-27T18:31:49.942Z,100952.13
2018-08-27T18:34:19.853Z,100950.01
2018-08-27T18:36:49.945Z,100959.83
2018-08-27T18:39:20.171Z,100958.96
2018-08-27T18:41:50.024Z,100962.31
2018-08-27T18:44:19.755Z,100963.12
2018-08-27T18:46:49.925Z,100970.43
2018-08-27T18:49:19.878Z,100968.52
2018-08-27T18:51:49.874Z,100971.84
2018-08-27T18:54:19.642Z,100976.83
2018-08-27T18:56:49.743Z,100976.97
2018-08-27T18:59:19.688Z,100987.45
2018-08-27T19:01:50.767Z,100987.77
2018-08-27T19:04:20.988Z,100991.03
2018-08-27T19:06:51.136Z,100990.70
2018-08-27T19:09:21.151Z,100993.84
2018-08-27T19:11:51.220Z,100991.83
2018-08-27T19:14:21.427Z,100995.73
2018-08-27T19:16:51.469Z,101000.42
2018-08-27T19:19:21.564Z,101009.59
2018-08-27T19:21:51.662Z,101013.37
2018-08-27T19:24:21.868Z,101015.06
2018-08-27T19:26:52.109Z,101014.69
2018-08-27T19:29:22.332Z,101017.86
2018-08-27T19:31:52.497Z,101020.82
2018-08-27T19:34:22.688Z,101032.43
2018-08-27T19:36:53.112Z,101033.87
2018-08-27T19:39:23.242Z,101035.67
2018-08-27T19:41:53.354Z,101046.39
2018-08-27T19:44:23.599Z,101041.02
2018-08-27T19:46:53.509Z,101041.92
2018-08-27T19:49:23.540Z,101043.42
2018-08-27T19:51:53.310Z,101042.59
2018-08-27T19:54:23.108Z,101044.84
2018-08-27T19:56:53.005Z,101047.28
2018-08-27T19:59:22.737Z,101051.48
2018-08-27T20:01:52.543Z,101050.23
2018-08-27T20:04:22.379Z,101053.50
2018-08-27T20:06:53.367Z,101050.80
2018-08-27T20:09:23.328Z,101052.53
2018-08-27T20:11:53.341Z,101052.56
2018-08-27T20:14:23.645Z,101057.90
2018-08-27T20:16:53.497Z,101050.87
2018-08-27T20:19:29.696Z,101052.11
2018-08-27T20:21:59.505Z,101055.83
2018-08-27T20:24:29.302Z,101055.55
2018-08-27T20:26:59.112Z,101071.30
2018-08-27T20:29:28.881Z,101073.87
2018-08-27T20:31:58.701Z,101078.33
2018-08-27T20:34:28.510Z,101082.75
2018-08-27T20:36:58.597Z,101085.53
2018-08-27T20:39:32.086Z,101086.19
2018-08-27T20:42:06.110Z,101085.19
2018-08-27T20:44:36.746Z,101091.39
2018-08-27T20:47:08.243Z,101093.19
2018-08-27T20:49:38.499Z,101096.75
2018-08-27T20:52:08.441Z,101097.65
2018-08-27T20:54:38.294Z,101095.67
2018-08-27T20:59:44.739Z,101101.33
2018-08-27T21:02:17.558Z,101107.84
2018-08-27T21:04:47.671Z,101109.19
2018-08-27T21:07:18.498Z,101100.55
2018-08-27T21:09:52.853Z,101102.04
2018-08-27T21:12:23.287Z,101103.27
2018-08-27T21:15:06.240Z,101104.66
2018-08-27T21:17:37.826Z,101096.30
2018-08-27T21:20:09.522Z,101100.66
2018-08-27T21:22:39.715Z,101103.27
2018-08-27T21:25:14.864Z,101106.88
2018-08-27T21:27:45.522Z,101113.08
2018-08-27T21:30:16.876Z,101116.18
2018-08-27T21:32:46.753Z,101117.33
2018-08-27T21:35:16.646Z,101124.46
2018-08-27T21:37:46.361Z,101122.30
2018-08-27T21:40:16.403Z,101125.85
2018-08-27T21:42:46.365Z,101121.73
2018-08-27T21:45:16.318Z,101124.95
2018-08-27T21:47:46.359Z,101127.98
2018-08-27T21:50:16.362Z,101126.17
2018-08-27T21:52:46.503Z,101127.23
2018-08-27T21:55:16.521Z,101128.55
2018-08-27T21:57:46.414Z,101130.75
2018-08-27T22:00:16.381Z,101131.72
2018-08-27T22:02:51.235Z,101138.80
2018-08-27T22:05:20.958Z,101143.98
2018-08-27T22:07:50.814Z,101142.25
2018-08-27T22:10:20.731Z,101148.16
2018-08-27T22:12:50.418Z,101146.53
2018-08-27T22:15:20.193Z,101151.27
2018-08-27T22:17:50.057Z,101160.67
2018-08-27T22:20:22.453Z,101155.13
2018-08-27T22:22:52.412Z,101161.31
2018-08-27T22:25:22.370Z,101151.74
2018-08-27T22:27:53.070Z,101155.13
2018-08-27T22:30:22.891Z,101162.25
2018-08-27T22:32:53.867Z,101165.39
2018-08-27T22:35:24.550Z,101168.42
2018-08-27T22:37:54.601Z,101168.48
2018-08-27T22:40:24.673Z,101167.58
2018-08-27T22:42:54.532Z,101170.27
2018-08-27T22:45:25.500Z,101176.34
2018-08-27T22:47:55.611Z,101171.11
2018-08-27T22:50:25.387Z,101171.50
2018-08-27T22:52:55.249Z,101176.80
2018-08-27T22:55:25.011Z,101173.70
2018-08-27T22:57:54.795Z,101179.42
2018-08-27T23:00:27.837Z,101179.84
2018-08-27T23:03:02.574Z,101178.53
2018-08-27T23:05:32.456Z,101182.89
2018-08-27T23:08:02.222Z,101192.55
2018-08-27T23:10:32.040Z,101193.95
2018-08-27T23:13:01.784Z,101193.41
2018-08-27T23:15:31.632Z,101194.24
2018-08-27T23:18:01.344Z,101199.52
2018-08-27T23:20:31.223Z,101196.95
2018-08-27T23:23:01.987Z,101205.29
2018-08-27T23:25:31.751Z,101203.08
2018-08-27T23:28:01.535Z,101199.98
2018-08-27T23:30:31.262Z,101206.69
2018-08-27T23:33:01.002Z,101209.65
2018-08-27T23:35:30.740Z,101202.73
2018-08-27T23:38:00.396Z,101204.89
2018-08-27T23:40:30.168Z,101213.19
2018-08-27T23:42:59.857Z,101208.92
2018-08-27T23:45:29.544Z,101205.41
2018-08-27T23:47:59.244Z,101208.45
2018-08-27T23:50:28.995Z,101204.50
2018-08-27T23:52:58.722Z,101205.86
2018-08-27T23:55:28.411Z,101205.44
2018-08-27T23:57:58.246Z,101205.95
